createdAt,value
2018-06-09T00:01:48.161Z,17.40
2018-06-09T00:04:17.000Z,17.40
2018-06-09T00:06:45.836Z,17.40
2018-06-09T00:09:14.714Z,17.40
2018-06-09T00:11:43.713Z,17.50
2018-06-09T00:14:12.607Z,17.50
2018-06-09T00:16:41.480Z,17.50
2018-06-09T00:19:10.352Z,17.50
2018-06-09T00:21:39.236Z,17.60
2018-06-09T00:24:08.116Z,17.50
2018-06-09T00:26:37.260Z,17.50
2018-06-09T00:29:06.135Z,17.50
2018-06-09T00:31:35.037Z,17.50
2018-06-09T00:34:03.876Z,17.40
2018-06-09T00:36:32.762Z,17.50
2018-06-09T00:39:01.653Z,17.40
2018-06-09T00:41:30.589Z,17.40
2018-06-09T00:43:59.490Z,17.40
2018-06-09T00:46:28.361Z,17.50
2018-06-09T00:48:57.262Z,17.50
2018-06-09T00:51:26.169Z,17.50
2018-06-09T00:53:55.064Z,17.50
2018-06-09T00:56:34.816Z,17.50
2018-06-09T00:59:03.781Z,17.50
2018-06-09T01:01:32.688Z,17.50
2018-06-09T01:04:01.576Z,17.40
2018-06-09T01:06:30.489Z,17.30
2018-06-09T01:08:59.365Z,17.40
2018-06-09T01:11:28.305Z,17.30
2018-06-09T01:13:57.195Z,17.20
2018-06-09T01:16:26.072Z,17.00
2018-06-09T01:18:54.996Z,17.00
2018-06-09T01:21:23.862Z,17.00
2018-06-09T01:23:52.760Z,17.00
2018-06-09T01:26:21.647Z,17.10
2018-06-09T01:28:50.492Z,16.90
2018-06-09T01:31:19.384Z,16.90
2018-06-09T01:33:48.292Z,16.80
2018-06-09T01:36:17.192Z,16.80
2018-06-09T01:38:46.051Z,16.80
2018-06-09T01:41:14.996Z,16.80
2018-06-09T01:43:43.900Z,16.80
2018-06-09T01:51:09.707Z,16.90
2018-06-09T01:53:38.692Z,16.90
2018-06-09T01:56:07.580Z,16.90
2018-06-09T01:58:36.465Z,16.80
2018-06-09T02:01:05.308Z,16.60
2018-06-09T02:06:02.708Z,16.50
2018-06-09T02:08:31.545Z,16.40
2018-06-09T02:11:00.500Z,16.40
2018-06-09T02:13:29.740Z,16.40
2018-06-09T02:15:58.627Z,16.40
2018-06-09T02:18:27.520Z,16.40
2018-06-09T02:20:56.428Z,16.50
2018-06-09T02:23:25.328Z,16.50
2018-06-09T02:25:54.197Z,16.50
2018-06-09T02:28:23.087Z,16.50
2018-06-09T02:33:20.432Z,16.60
2018-06-09T02:35:49.904Z,16.60
2018-06-09T02:38:18.753Z,16.60
2018-06-09T02:40:47.716Z,16.70
2018-06-09T02:43:16.585Z,16.70
2018-06-09T02:45:45.460Z,16.70
2018-06-09T02:48:14.306Z,16.70
2018-06-09T02:50:43.184Z,16.70
2018-06-09T02:53:12.052Z,16.70
2018-06-09T02:55:40.945Z,16.70
2018-06-09T02:58:10.148Z,16.70
2018-06-09T03:00:39.056Z,16.60
2018-06-09T03:03:07.912Z,16.60
2018-06-09T03:05:36.836Z,16.60
2018-06-09T03:08:05.704Z,16.50
2018-06-09T03:10:34.640Z,16.60
2018-06-09T03:13:03.541Z,16.50
2018-06-09T03:15:32.536Z,16.50
2018-06-09T03:18:01.444Z,16.50
2018-06-09T03:20:30.359Z,16.50
2018-06-09T03:22:59.214Z,16.50
2018-06-09T03:25:28.071Z,16.40
2018-06-09T03:27:56.983Z,16.40
2018-06-09T03:30:25.868Z,16.30
2018-06-09T03:32:54.755Z,16.20
2018-06-09T03:35:23.583Z,16.10
2018-06-09T03:37:52.503Z,16.00
2018-06-09T03:40:21.349Z,15.90
2018-06-09T03:42:50.324Z,15.90
2018-06-09T03:45:19.221Z,15.80
2018-06-09T03:47:48.194Z,15.70
2018-06-09T03:50:17.099Z,15.80
2018-06-09T03:52:46.004Z,15.80
2018-06-09T03:55:14.992Z,15.80
2018-06-09T03:57:43.949Z,15.80
2018-06-09T04:00:12.864Z,15.90
2018-06-09T04:02:41.764Z,15.90
2018-06-09T04:05:10.707Z,15.90
2018-06-09T04:07:39.589Z,15.90
2018-06-09T04:10:08.489Z,15.80
2018-06-09T04:12:37.348Z,15.80
2018-06-09T04:15:06.293Z,15.90
2018-06-09T04:17:35.136Z,15.90
2018-06-09T04:20:04.022Z,15.90
2018-06-09T04:22:32.913Z,15.90
2018-06-09T04:25:01.836Z,15.80
2018-06-09T04:27:30.711Z,15.90
2018-06-09T04:29:59.576Z,16.00
2018-06-09T04:32:28.441Z,16.00
2018-06-09T04:34:57.312Z,16.00
2018-06-09T04:37:26.260Z,16.00
2018-06-09T04:39:55.199Z,16.00
2018-06-09T04:42:24.091Z,15.90
2018-06-09T04:44:52.939Z,16.00
2018-06-09T04:47:21.846Z,16.00
2018-06-09T04:49:50.731Z,16.00
2018-06-09T04:52:19.649Z,16.10
2018-06-09T04:54:48.487Z,16.00
2018-06-09T04:57:17.461Z,16.10
2018-06-09T04:59:46.329Z,16.10
2018-06-09T05:04:43.692Z,16.20
2018-06-09T05:09:41.591Z,16.20
2018-06-09T05:12:10.508Z,16.20
2018-06-09T05:14:39.364Z,16.20
2018-06-09T05:17:08.240Z,16.30
2018-06-09T05:19:37.117Z,16.30
2018-06-09T05:22:06.029Z,16.40
2018-06-09T05:24:34.896Z,16.50
2018-06-09T05:29:32.347Z,16.60
2018-06-09T05:32:01.300Z,16.70
2018-06-09T05:34:30.420Z,16.70
2018-06-09T05:36:59.428Z,16.80
2018-06-09T05:39:28.314Z,16.80
2018-06-09T05:41:57.236Z,16.90
2018-06-09T05:44:26.184Z,16.90
2018-06-09T05:46:55.091Z,16.90
2018-06-09T05:49:23.948Z,17.00
2018-06-09T05:51:52.836Z,17.00
2018-06-09T05:54:21.699Z,17.00
2018-06-09T05:56:50.581Z,17.00
2018-06-09T05:59:19.532Z,17.10
2018-06-09T06:01:48.364Z,17.10
2018-06-09T06:04:17.286Z,17.20
2018-06-09T06:06:46.164Z,17.20
2018-06-09T06:09:16.552Z,17.30
2018-06-09T06:14:14.004Z,17.30
2018-06-09T06:16:42.869Z,17.30
2018-06-09T06:19:11.857Z,17.40
2018-06-09T06:21:40.813Z,17.50
2018-06-09T06:24:09.717Z,17.50
2018-06-09T06:26:39.066Z,17.60
2018-06-09T06:29:07.956Z,17.60
2018-06-09T06:31:36.880Z,17.70
2018-06-09T06:34:05.756Z,17.90
2018-06-09T06:36:34.705Z,18.00
2018-06-09T06:39:03.723Z,18.10
2018-06-09T06:41:32.643Z,18.20
2018-06-09T06:44:01.561Z,18.20
2018-06-09T06:46:30.440Z,18.20
2018-06-09T06:48:59.364Z,18.30
2018-06-09T06:51:28.295Z,18.30
2018-06-09T06:53:57.193Z,18.40
2018-06-09T06:58:54.520Z,18.50
2018-06-09T07:01:23.416Z,18.50
2018-06-09T07:03:52.331Z,18.60
2018-06-09T07:06:21.196Z,18.60
2018-06-09T07:08:50.120Z,18.70
2018-06-09T07:11:19.005Z,18.70
2018-06-09T07:13:47.967Z,18.80
2018-06-09T07:16:16.815Z,18.80
2018-06-09T07:18:45.783Z,18.90
2018-06-09T07:21:14.645Z,19.00
2018-06-09T07:23:43.655Z,19.00
2018-06-09T07:26:12.535Z,19.00
2018-06-09T07:28:41.445Z,19.10
2018-06-09T07:31:10.381Z,19.10
2018-06-09T07:36:07.724Z,19.20
2018-06-09T07:38:36.603Z,19.20
2018-06-09T07:41:05.491Z,19.30
2018-06-09T07:43:34.497Z,19.40
2018-06-09T07:46:03.376Z,19.50
2018-06-09T07:48:32.235Z,19.60
2018-06-09T07:51:01.188Z,19.60
2018-06-09T07:53:30.140Z,19.70
2018-06-09T07:55:58.994Z,19.60
2018-06-09T07:58:27.872Z,19.70
2018-06-09T08:00:56.739Z,19.70
2018-06-09T08:03:25.637Z,19.70
2018-06-09T08:05:54.624Z,19.70
2018-06-09T08:10:51.977Z,19.70
2018-06-09T08:13:20.896Z,19.80
2018-06-09T08:15:49.848Z,19.90
2018-06-09T08:18:18.820Z,20.00
2018-06-09T08:20:47.728Z,20.20
2018-06-09T08:23:16.984Z,20.20
2018-06-09T08:25:45.940Z,20.30
2018-06-09T08:28:14.857Z,20.30
2018-06-09T08:30:43.792Z,20.40
2018-06-09T08:33:12.786Z,20.40
2018-06-09T08:35:41.712Z,20.40
2018-06-09T08:38:10.613Z,20.50
2018-06-09T08:40:39.543Z,20.50
2018-06-09T08:43:08.557Z,20.60
2018-06-09T08:45:38.216Z,20.70
2018-06-09T08:48:07.166Z,20.70
2018-06-09T08:50:36.086Z,20.90
2018-06-09T08:53:05.129Z,21.00
2018-06-09T08:55:34.084Z,21.10
2018-06-09T08:58:02.986Z,21.30
2018-06-09T09:00:31.925Z,21.50
2018-06-09T09:03:00.801Z,21.60
2018-06-09T09:05:29.721Z,21.70
2018-06-09T09:07:58.716Z,21.80
2018-06-09T09:10:27.592Z,21.90
2018-06-09T09:12:56.467Z,22.00
2018-06-09T09:15:25.432Z,22.00
2018-06-09T09:17:54.336Z,22.10
2018-06-09T09:20:23.289Z,22.20
2018-06-09T09:22:52.269Z,22.30
2018-06-09T09:25:21.273Z,22.40
2018-06-09T09:27:50.165Z,22.50
2018-06-09T09:30:19.116Z,22.50
2018-06-09T09:32:48.224Z,22.60
2018-06-09T09:35:17.136Z,22.80
2018-06-09T09:37:46.114Z,22.90
2018-06-09T09:42:43.445Z,23.10
2018-06-09T09:45:12.347Z,23.10
2018-06-09T09:47:41.251Z,23.30
2018-06-09T09:50:10.132Z,23.30
2018-06-09T09:52:39.040Z,23.40
2018-06-09T09:55:07.997Z,23.60
2018-06-09T09:57:48.240Z,23.70
2018-06-09T10:00:23.148Z,23.90
2018-06-09T10:02:52.172Z,24.00
2018-06-09T10:05:21.070Z,24.20
2018-06-09T10:07:50.100Z,24.40
2018-06-09T10:10:29.611Z,24.40
2018-06-09T10:12:59.014Z,24.50
2018-06-09T10:17:56.412Z,24.70
2018-06-09T10:20:38.594Z,24.80
2018-06-09T10:23:10.040Z,24.90
2018-06-09T10:25:40.020Z,25.00
2018-06-09T10:28:10.048Z,25.20
2018-06-09T10:30:43.306Z,25.30
2018-06-09T10:33:24.788Z,25.40
2018-06-09T10:35:53.643Z,25.70
2018-06-09T10:38:22.512Z,25.80
2018-06-09T10:43:19.864Z,25.80
2018-06-09T10:45:48.731Z,26.00
2018-06-09T10:48:17.641Z,26.10
2018-06-09T10:50:46.596Z,26.20
2018-06-09T10:53:15.513Z,26.20
2018-06-09T10:55:45.418Z,26.40
2018-06-09T10:58:14.380Z,26.60
2018-06-09T11:00:43.304Z,26.90
2018-06-09T11:03:12.179Z,27.20
2018-06-09T11:05:41.037Z,27.40
2018-06-09T11:08:15.278Z,27.50
2018-06-09T11:10:57.016Z,27.70
2018-06-09T11:13:27.196Z,27.70
2018-06-09T11:18:55.700Z,27.90
2018-06-09T11:21:25.345Z,28.00
2018-06-09T11:26:28.160Z,28.20
2018-06-09T11:28:57.391Z,28.10
2018-06-09T11:31:26.327Z,28.30
2018-06-09T11:33:55.316Z,28.40
2018-06-09T11:36:24.168Z,28.50
2018-06-09T11:38:53.554Z,28.60
2018-06-09T11:41:22.505Z,28.50
2018-06-09T11:43:51.904Z,28.60
2018-06-09T11:46:20.771Z,28.70
2018-06-09T11:48:49.728Z,28.70
2018-06-09T11:51:18.563Z,28.60
2018-06-09T11:53:47.636Z,28.70
2018-06-09T11:56:16.544Z,28.80
2018-06-09T12:01:16.321Z,28.90
2018-06-09T12:03:45.192Z,28.90
2018-06-09T12:06:14.156Z,28.90
2018-06-09T12:08:43.043Z,29.00
2018-06-09T12:11:12.041Z,29.10
2018-06-09T12:13:40.923Z,29.10
2018-06-09T12:16:09.805Z,29.20
2018-06-09T12:18:38.896Z,29.20
2018-06-09T12:21:07.877Z,29.30
2018-06-09T12:23:36.858Z,29.20
2018-06-09T12:26:05.748Z,29.40
2018-06-09T12:28:34.968Z,29.50
2018-06-09T12:33:32.508Z,29.50
2018-06-09T12:36:01.447Z,29.50
2018-06-09T12:38:30.420Z,29.30
2018-06-09T12:40:59.273Z,29.10
2018-06-09T12:43:28.188Z,28.90
2018-06-09T12:45:57.328Z,28.70
2018-06-09T12:48:26.630Z,28.40
2018-06-09T12:50:56.969Z,28.10
2018-06-09T12:53:25.848Z,27.80
2018-06-09T12:55:54.732Z,27.80
2018-06-09T12:58:23.957Z,27.70
2018-06-09T13:00:54.090Z,27.40
2018-06-09T13:03:23.846Z,27.40
2018-06-09T13:05:52.828Z,27.60
2018-06-09T13:08:22.892Z,27.80
2018-06-09T13:10:51.807Z,27.90
2018-06-09T13:13:22.884Z,27.90
2018-06-09T13:15:54.494Z,28.10
2018-06-09T13:18:23.456Z,28.40
2018-06-09T13:20:52.465Z,28.60
2018-06-09T13:23:21.316Z,28.80
2018-06-09T13:25:50.164Z,29.00
2018-06-09T13:30:47.517Z,29.40
2018-06-09T13:33:16.428Z,29.60
2018-06-09T13:38:13.801Z,29.80
2018-06-09T13:40:42.660Z,29.60
2018-06-09T13:43:11.644Z,29.70
2018-06-09T13:45:40.501Z,29.70
2018-06-09T13:48:09.606Z,29.90
2018-06-09T13:50:38.521Z,30.00
2018-06-09T13:53:07.385Z,30.20
2018-06-09T13:55:36.270Z,30.30
2018-06-09T13:58:05.116Z,30.50
2018-06-09T14:00:34.052Z,30.50
2018-06-09T14:03:02.948Z,30.50
2018-06-09T14:05:31.916Z,30.60
2018-06-09T14:08:00.760Z,30.70
2018-06-09T14:10:29.684Z,30.60
2018-06-09T14:12:58.564Z,30.70
2018-06-09T14:15:27.484Z,30.70
2018-06-09T14:17:56.356Z,30.70
2018-06-09T14:20:26.256Z,30.90
2018-06-09T14:22:55.196Z,30.80
2018-06-09T14:25:24.084Z,30.80
2018-06-09T14:27:52.989Z,30.50
2018-06-09T14:30:22.255Z,30.30
2018-06-09T14:32:51.162Z,30.20
2018-06-09T14:35:20.072Z,30.20
2018-06-09T14:37:48.981Z,30.20
2018-06-09T14:40:17.876Z,30.10
2018-06-09T14:42:46.794Z,30.10
2018-06-09T14:45:15.685Z,30.00
2018-06-09T14:47:44.629Z,29.80
2018-06-09T14:50:13.543Z,29.50
2018-06-09T14:52:42.417Z,29.30
2018-06-09T14:55:12.042Z,29.20
2018-06-09T14:57:40.919Z,29.10
2018-06-09T15:00:09.852Z,29.10
2018-06-09T15:02:38.752Z,28.90
2018-06-09T15:05:07.723Z,28.90
2018-06-09T15:07:36.645Z,28.80
2018-06-09T15:10:05.572Z,28.70
2018-06-09T15:12:34.584Z,28.70
2018-06-09T15:15:03.465Z,28.70
2018-06-09T15:17:32.325Z,28.00
2018-06-09T15:20:01.238Z,27.40
2018-06-09T15:22:30.096Z,27.10
2018-06-09T15:24:59.126Z,26.80
2018-06-09T15:27:28.043Z,26.30
2018-06-09T15:29:56.980Z,26.30
2018-06-09T15:32:25.903Z,25.90
2018-06-09T15:34:54.781Z,25.80
2018-06-09T15:37:23.703Z,25.50
2018-06-09T15:39:52.865Z,25.30
2018-06-09T15:42:21.752Z,25.30
2018-06-09T15:44:50.611Z,25.30
2018-06-09T15:47:19.516Z,25.30
2018-06-09T15:49:48.435Z,25.30
2018-06-09T15:52:17.283Z,25.30
2018-06-09T15:54:46.297Z,25.30
2018-06-09T15:57:15.223Z,25.10
2018-06-09T15:59:44.168Z,25.10
2018-06-09T16:02:13.048Z,25.10
2018-06-09T16:04:41.949Z,25.00
2018-06-09T16:07:10.848Z,25.00
2018-06-09T16:09:39.786Z,25.00
2018-06-09T16:12:08.733Z,24.80
2018-06-09T16:14:37.618Z,24.60
2018-06-09T16:17:06.537Z,24.30
2018-06-09T16:19:35.480Z,24.30
2018-06-09T16:22:04.480Z,24.30
2018-06-09T16:24:33.679Z,24.20
2018-06-09T16:27:02.584Z,24.10
2018-06-09T16:29:31.607Z,24.20
2018-06-09T16:32:00.448Z,24.30
2018-06-09T16:34:29.409Z,24.40
2018-06-09T16:36:58.337Z,24.30
2018-06-09T16:39:27.431Z,24.40
2018-06-09T16:41:56.372Z,24.30
2018-06-09T16:49:22.284Z,24.50
2018-06-09T16:51:51.278Z,24.20
2018-06-09T16:54:20.177Z,24.00
2018-06-09T16:56:49.141Z,23.90
2018-06-09T16:59:18.075Z,23.90
2018-06-09T17:01:47.565Z,24.00
2018-06-09T17:04:16.545Z,24.10
2018-06-09T17:06:45.515Z,24.10
2018-06-09T17:09:14.494Z,24.20
2018-06-09T17:11:43.423Z,24.30
2018-06-09T17:14:12.481Z,24.30
2018-06-09T17:16:41.341Z,24.20
2018-06-09T17:19:10.198Z,24.10
2018-06-09T17:21:39.123Z,24.00
2018-06-09T17:24:08.042Z,24.00
2018-06-09T17:26:36.930Z,24.00
2018-06-09T17:29:05.891Z,24.00
2018-06-09T17:31:34.813Z,24.00
2018-06-09T17:34:03.708Z,24.00
2018-06-09T17:36:32.617Z,24.10
2018-06-09T17:39:01.521Z,24.20
2018-06-09T17:43:58.971Z,24.10
2018-06-09T17:46:27.836Z,24.00
2018-06-09T17:48:56.758Z,24.00
2018-06-09T17:51:25.637Z,24.00
2018-06-09T17:53:54.541Z,23.90
2018-06-09T17:58:51.908Z,23.70
2018-06-09T18:01:20.796Z,23.70
2018-06-09T18:03:49.692Z,23.70
2018-06-09T18:06:18.582Z,23.60
2018-06-09T18:08:47.510Z,23.60
2018-06-09T18:11:16.727Z,23.60
2018-06-09T18:13:45.708Z,23.60
2018-06-09T18:16:14.572Z,23.60
2018-06-09T18:18:43.457Z,23.60
2018-06-09T18:23:46.388Z,23.40
2018-06-09T18:26:15.231Z,23.30
2018-06-09T18:28:44.140Z,23.00
2018-06-09T18:31:13.040Z,22.80
2018-06-09T18:33:41.964Z,22.70
2018-06-09T18:36:10.912Z,22.70
2018-06-09T18:38:39.868Z,22.80
2018-06-09T18:41:08.787Z,22.80
2018-06-09T18:43:37.656Z,22.80
2018-06-09T18:53:31.952Z,22.60
2018-06-09T18:56:00.888Z,22.60
2018-06-09T18:58:29.752Z,22.60
2018-06-09T19:00:58.628Z,22.60
2018-06-09T19:03:27.517Z,22.50
2018-06-09T19:05:56.729Z,22.50
2018-06-09T19:08:26.525Z,22.60
2018-06-09T19:13:24.077Z,22.70
2018-06-09T19:15:53.030Z,22.60
2018-06-09T19:18:21.983Z,22.50
2018-06-09T19:20:50.828Z,22.40
2018-06-09T19:23:20.454Z,22.40
2018-06-09T19:25:49.321Z,22.40
2018-06-09T19:28:19.208Z,22.40
2018-06-09T19:30:48.388Z,22.40
2018-06-09T19:33:17.528Z,22.50
2018-06-09T19:35:46.612Z,22.60
2018-06-09T19:38:15.720Z,22.50
2018-06-09T19:40:44.657Z,22.60
2018-06-09T19:43:14.280Z,22.70
2018-06-09T19:45:43.144Z,22.60
2018-06-09T19:50:40.548Z,22.60
2018-06-09T19:53:09.380Z,22.70
2018-06-09T19:55:38.302Z,22.60
2018-06-09T19:58:07.149Z,22.50
2018-06-09T20:00:36.087Z,22.40
2018-06-09T20:03:05.077Z,22.20
2018-06-09T20:05:34.108Z,22.10
2018-06-09T20:08:02.988Z,22.00
2018-06-09T20:10:31.991Z,22.00
2018-06-09T20:13:01.083Z,21.90
2018-06-09T20:15:30.208Z,21.80
2018-06-09T20:17:59.476Z,21.70
2018-06-09T20:20:28.363Z,21.70
2018-06-09T20:22:58.066Z,21.80
2018-06-09T20:25:26.963Z,21.80
2018-06-09T20:27:55.829Z,21.90
2018-06-09T20:30:24.715Z,21.90
2018-06-09T20:32:53.621Z,21.90
2018-06-09T20:35:22.557Z,21.70
2018-06-09T20:37:51.420Z,21.60
2018-06-09T20:40:20.329Z,21.40
2018-06-09T20:42:49.204Z,21.30
2018-06-09T20:45:18.126Z,21.30
2018-06-09T20:47:47.024Z,21.30
2018-06-09T20:50:15.893Z,21.30
2018-06-09T20:52:44.785Z,21.20
2018-06-09T20:57:42.188Z,21.10
2018-06-09T21:00:11.051Z,21.10
2018-06-09T21:02:40.094Z,21.10
2018-06-09T21:05:09.133Z,21.20
2018-06-09T21:07:38.001Z,21.20
2018-06-09T21:10:06.902Z,21.10
2018-06-09T21:12:35.872Z,21.10
2018-06-09T21:15:04.809Z,21.20
2018-06-09T21:17:33.696Z,21.20
2018-06-09T21:20:03.305Z,21.20
2018-06-09T21:22:32.212Z,21.10
2018-06-09T21:25:01.088Z,21.20
2018-06-09T21:27:34.896Z,21.20
2018-06-09T21:30:10.893Z,21.10
2018-06-09T21:32:45.540Z,21.00
2018-06-09T21:37:57.728Z,20.90
2018-06-09T21:40:30.724Z,20.70
2018-06-09T21:43:04.800Z,20.60
2018-06-09T21:45:38.920Z,20.60
2018-06-09T21:48:07.780Z,20.60
2018-06-09T21:53:29.560Z,20.60
2018-06-09T21:55:58.468Z,20.60
2018-06-09T21:58:27.309Z,20.60
2018-06-09T22:00:56.357Z,20.60
2018-06-09T22:03:25.192Z,20.50
2018-06-09T22:05:54.104Z,20.60
2018-06-09T22:08:23.020Z,20.60
2018-06-09T22:10:51.952Z,20.50
2018-06-09T22:13:20.944Z,20.60
2018-06-09T22:15:49.786Z,20.60
2018-06-09T22:20:47.091Z,20.60
2018-06-09T22:23:15.996Z,20.50
2018-06-09T22:25:50.008Z,20.40
2018-06-09T22:28:18.915Z,20.40
2018-06-09T22:30:47.758Z,20.40
2018-06-09T22:33:16.668Z,20.30
2018-06-09T22:35:45.545Z,20.30
2018-06-09T22:38:14.772Z,20.30
2018-06-09T22:40:43.640Z,20.30
2018-06-09T22:43:13.040Z,20.30
2018-06-09T22:45:41.983Z,20.20
2018-06-09T22:48:10.817Z,20.10
2018-06-09T22:50:39.744Z,20.20
2018-06-09T22:53:08.624Z,20.30
2018-06-09T22:55:37.528Z,20.30
2018-06-09T22:58:06.447Z,20.40
2018-06-09T23:00:47.916Z,20.40
2018-06-09T23:03:17.325Z,20.40
2018-06-09T23:05:46.586Z,20.40
2018-06-09T23:08:15.483Z,20.40
2018-06-09T23:10:44.381Z,20.40
2018-06-09T23:15:42.663Z,20.20
2018-06-09T23:18:11.568Z,20.10
2018-06-09T23:23:09.275Z,19.90
2018-06-09T23:25:38.124Z,19.70
2018-06-09T23:30:35.450Z,19.70
2018-06-09T23:33:04.301Z,19.60
2018-06-09T23:35:33.172Z,19.60
2018-06-09T23:45:27.461Z,19.60
2018-06-09T23:47:56.320Z,19.70
2018-06-09T23:50:25.193Z,19.70
2018-06-09T23:52:54.199Z,19.70
2018-06-09T23:55:23.053Z,19.70
2018-06-09T23:57:51.939Z,19.70
